createdAt,value
2022-12-13T00:00:57.355Z,9.67
2022-12-13T00:05:58.905Z,10.30
2022-12-13T00:11:01.875Z,9.63
2022-12-13T00:16:06.322Z,9.33
2022-12-13T00:21:18.940Z,9.27
2022-12-13T00:26:22.836Z,9.00
2022-12-13T00:36:48.231Z,9.00
2022-12-13T00:41:49.829Z,9.50
2022-12-13T00:46:54.598Z,9.60
2022-12-13T00:51:56.964Z,8.10
2022-12-13T00:56:58.859Z,9.07
2022-12-13T01:02:00.459Z,8.30
2022-12-13T01:07:02.109Z,8.83
2022-12-13T01:12:05.572Z,8.73
2022-12-13T01:17:08.042Z,8.50
2022-12-13T01:22:11.627Z,8.70
2022-12-13T01:27:13.174Z,7.87
2022-12-13T01:32:14.760Z,8.67
2022-12-13T01:37:17.583Z,8.30
2022-12-13T01:42:19.170Z,8.83
2022-12-13T01:47:25.826Z,8.97
2022-12-13T01:52:29.466Z,9.47
2022-12-13T01:57:33.228Z,9.27
2022-12-13T02:02:35.314Z,8.77
2022-12-13T02:07:38.503Z,8.93
2022-12-13T02:12:40.737Z,9.30
2022-12-13T02:18:05.420Z,9.20
2022-12-13T02:23:31.139Z,8.47
2022-12-13T02:28:51.633Z,9.10
2022-12-13T02:34:02.468Z,8.57
2022-12-13T02:39:16.907Z,7.90
2022-12-13T02:44:51.728Z,7.93
2022-12-13T02:49:58.849Z,7.20
2022-12-13T02:55:07.344Z,7.60
2022-12-13T03:00:21.425Z,8.17
2022-12-13T03:06:13.841Z,8.40
2022-12-13T03:11:17.813Z,8.30
2022-12-13T03:16:40.682Z,7.73
2022-12-13T03:21:48.547Z,7.67
2022-12-13T03:26:51.066Z,8.57
2022-12-13T03:31:53.889Z,8.00
2022-12-13T03:36:55.545Z,9.10
2022-12-13T03:41:57.134Z,8.53
2022-12-13T03:47:00.663Z,8.40
2022-12-13T03:52:02.687Z,8.77
2022-12-13T03:57:04.247Z,9.10
2022-12-13T04:02:05.908Z,8.57
2022-12-13T04:07:22.014Z,8.60
2022-12-13T04:12:48.169Z,8.70
2022-12-13T04:17:51.155Z,8.17
2022-12-13T04:22:52.958Z,7.90
2022-12-13T04:27:54.499Z,8.43
2022-12-13T04:32:56.790Z,8.07
2022-12-13T04:37:58.426Z,8.73
2022-12-13T04:42:59.968Z,8.80
2022-12-13T04:48:01.591Z,8.97
2022-12-13T04:53:03.399Z,9.50
2022-12-13T04:58:05.010Z,9.67
2022-12-13T05:03:08.134Z,9.50
2022-12-13T05:08:09.694Z,9.63
2022-12-13T05:13:11.322Z,10.30
2022-12-13T05:18:12.875Z,9.87
2022-12-13T05:23:14.524Z,10.30
2022-12-13T05:28:28.956Z,10.50
2022-12-13T05:33:30.715Z,10.70
2022-12-13T05:38:32.537Z,11.00
2022-12-13T05:43:43.215Z,11.30
2022-12-13T05:48:45.419Z,10.37
2022-12-13T05:53:51.560Z,10.10
2022-12-13T05:58:54.966Z,10.57
2022-12-13T06:03:56.865Z,10.50
2022-12-13T06:08:59.785Z,10.30
2022-12-13T06:14:01.544Z,10.40
2022-12-13T06:19:04.799Z,9.87
2022-12-13T06:24:08.666Z,10.20
2022-12-13T06:29:11.132Z,10.13
2022-12-13T06:34:13.979Z,9.80
2022-12-13T06:39:16.977Z,9.73
2022-12-13T06:44:18.609Z,9.60
2022-12-13T06:49:20.263Z,9.73
2022-12-13T06:54:23.868Z,9.90
2022-12-13T06:59:25.445Z,9.60
2022-12-13T07:04:29.741Z,8.90
2022-12-13T07:09:32.299Z,9.67
2022-12-13T07:14:40.655Z,10.00
2022-12-13T07:19:43.364Z,9.90
2022-12-13T07:24:45.291Z,9.80
2022-12-13T07:29:46.944Z,9.43
2022-12-13T07:34:48.927Z,10.10
2022-12-13T07:39:50.525Z,9.77
2022-12-13T07:44:52.551Z,10.00
2022-12-13T07:49:54.159Z,9.73
2022-12-13T07:54:55.766Z,10.50
2022-12-13T07:59:58.090Z,10.33
2022-12-13T08:04:59.741Z,12.10
2022-12-13T08:10:21.303Z,11.23
2022-12-13T08:15:23.293Z,11.00
2022-12-13T08:20:24.875Z,10.53
2022-12-13T08:25:27.103Z,10.57
2022-12-13T08:30:28.707Z,10.30
2022-12-13T08:35:33.955Z,10.73
2022-12-13T08:40:36.646Z,10.90
2022-12-13T08:45:38.261Z,10.30
2022-12-13T08:50:39.919Z,10.47
2022-12-13T08:55:42.043Z,10.27
2022-12-13T09:00:45.271Z,10.43
2022-12-13T09:05:46.856Z,10.47
2022-12-13T09:10:59.195Z,9.97
2022-12-13T09:16:05.057Z,9.73
2022-12-13T09:21:22.112Z,9.57
2022-12-13T09:26:25.481Z,9.77
2022-12-13T09:31:27.338Z,9.80
2022-12-13T09:36:29.211Z,9.57
2022-12-13T09:41:34.320Z,10.63
2022-12-13T09:46:45.522Z,10.67
2022-12-13T09:52:01.305Z,11.17
2022-12-13T09:57:31.353Z,11.00
2022-12-13T10:02:42.540Z,10.47
2022-12-13T10:07:44.490Z,10.13
2022-12-13T10:12:49.044Z,10.57
2022-12-13T10:17:55.673Z,9.03
2022-12-13T10:28:25.466Z,8.77
2022-12-13T10:33:51.525Z,8.20
2022-12-13T10:38:53.112Z,8.67
2022-12-13T10:44:17.756Z,9.23
2022-12-13T10:49:24.587Z,9.77
2022-12-13T10:54:38.851Z,8.97
2022-12-13T10:59:51.072Z,9.00
2022-12-13T11:04:52.660Z,8.67
2022-12-13T11:09:54.287Z,8.13
2022-12-13T11:14:55.910Z,8.07
2022-12-13T11:20:19.938Z,8.60
2022-12-13T11:25:33.919Z,7.83
2022-12-13T11:31:09.685Z,7.67
2022-12-13T11:36:26.595Z,8.23
2022-12-13T11:41:32.472Z,7.53
2022-12-13T11:46:40.767Z,8.27
2022-12-13T11:52:04.916Z,8.33
2022-12-13T11:57:16.382Z,7.70
2022-12-13T12:02:29.505Z,8.00
2022-12-13T12:08:21.019Z,6.63
2022-12-13T12:13:27.232Z,6.80
2022-12-13T12:18:28.970Z,6.33
2022-12-13T12:23:53.878Z,6.20
2022-12-13T12:29:11.894Z,6.47
2022-12-13T12:34:27.215Z,6.57
2022-12-13T12:39:48.510Z,5.83
2022-12-13T12:44:50.566Z,6.97
2022-12-13T12:50:18.533Z,6.50
2022-12-13T12:55:33.222Z,6.23
2022-12-13T13:00:42.314Z,6.50
2022-12-13T13:06:03.098Z,7.10
2022-12-13T13:11:05.693Z,6.80
2022-12-13T13:16:26.825Z,6.73
2022-12-13T13:21:34.203Z,6.23
2022-12-13T13:26:47.889Z,5.13
2022-12-13T13:32:01.126Z,5.30
2022-12-13T13:37:05.044Z,5.63
2022-12-13T13:42:15.600Z,5.40
2022-12-13T13:47:19.898Z,5.43
2022-12-13T13:52:25.341Z,4.80
2022-12-13T14:04:04.252Z,5.97
2022-12-13T14:09:24.838Z,5.33
2022-12-13T14:14:49.936Z,5.87
2022-12-13T14:20:06.325Z,6.43
2022-12-13T14:25:23.327Z,5.83
2022-12-13T14:30:27.233Z,5.60
2022-12-13T14:35:32.493Z,5.40
2022-12-13T14:40:38.972Z,5.10
2022-12-13T14:45:40.679Z,6.33
2022-12-13T14:50:44.807Z,6.60
2022-12-13T14:56:04.269Z,6.40
2022-12-13T15:01:37.423Z,6.63
2022-12-13T15:06:39.518Z,6.07
2022-12-13T15:11:42.626Z,6.53
2022-12-13T15:16:55.400Z,6.33
2022-12-13T15:22:07.563Z,6.53
2022-12-13T15:27:13.342Z,7.53
2022-12-13T15:32:19.083Z,7.60
2022-12-13T15:37:29.659Z,7.53
2022-12-13T15:42:37.307Z,7.90
2022-12-13T15:47:44.533Z,7.87
2022-12-13T15:52:47.935Z,8.37
2022-12-13T15:57:54.615Z,8.23
2022-12-13T16:03:12.884Z,7.70
2022-12-13T16:08:32.806Z,8.90
2022-12-13T16:13:39.940Z,7.90
2022-12-13T16:18:55.157Z,8.67
2022-12-13T16:23:56.745Z,7.77
2022-12-13T16:29:01.135Z,9.33
2022-12-13T16:34:03.614Z,9.03
2022-12-13T16:39:07.649Z,8.40
2022-12-13T16:44:19.030Z,7.67
2022-12-13T16:49:30.630Z,7.90
2022-12-13T16:54:32.172Z,8.73
2022-12-13T16:59:33.874Z,8.37
2022-12-13T17:04:39.633Z,7.97
2022-12-13T17:09:42.167Z,9.33
2022-12-13T17:14:43.751Z,9.10
2022-12-13T17:19:45.401Z,9.43
2022-12-13T17:24:47.013Z,10.00
2022-12-13T17:29:48.611Z,10.80
2022-12-13T17:34:53.187Z,10.53
2022-12-13T17:39:54.729Z,9.87
2022-12-13T17:44:56.336Z,11.23
2022-12-13T17:49:57.950Z,10.73
2022-12-13T17:55:00.926Z,13.10
2022-12-13T18:00:03.927Z,12.77
2022-12-13T18:05:17.868Z,12.10
2022-12-13T18:10:22.583Z,12.47
2022-12-13T18:15:27.969Z,11.53
2022-12-13T18:20:30.166Z,11.93
2022-12-13T18:25:31.983Z,12.23
2022-12-13T18:30:33.712Z,12.37
2022-12-13T18:35:35.356Z,12.47
2022-12-13T18:40:37.471Z,11.93
2022-12-13T18:45:39.064Z,12.40
2022-12-13T18:50:45.535Z,12.33
2022-12-13T18:55:51.029Z,11.83
2022-12-13T19:00:52.890Z,12.43
2022-12-13T19:05:58.343Z,13.17
2022-12-13T19:11:01.881Z,12.50
2022-12-13T19:16:07.453Z,13.77
2022-12-13T19:21:15.789Z,12.73
2022-12-13T19:26:17.884Z,13.03
2022-12-13T19:31:19.569Z,13.80
2022-12-13T19:36:21.458Z,12.27
2022-12-13T19:41:24.647Z,13.80
2022-12-13T19:46:26.408Z,13.33
2022-12-13T19:51:28.015Z,13.13
2022-12-13T19:56:29.716Z,13.40
2022-12-13T20:01:31.593Z,13.53
2022-12-13T20:06:33.202Z,14.53
2022-12-13T20:11:36.129Z,13.70
2022-12-13T20:16:37.755Z,14.00
2022-12-13T20:21:39.377Z,13.57
2022-12-13T20:26:40.996Z,14.17
2022-12-13T20:31:42.695Z,14.40
2022-12-13T20:36:50.201Z,14.77
2022-12-13T20:41:51.851Z,13.90
2022-12-13T20:46:53.757Z,13.50
2022-12-13T20:51:55.390Z,14.43
2022-12-13T20:56:57.092Z,12.77
2022-12-13T21:01:58.806Z,13.73
2022-12-13T21:07:02.553Z,14.77
2022-12-13T21:12:04.319Z,14.20
2022-12-13T21:17:09.597Z,14.10
2022-12-13T21:22:12.702Z,14.30
2022-12-13T21:27:14.564Z,13.93
2022-12-13T21:32:16.375Z,14.47
2022-12-13T21:37:18.466Z,13.07
2022-12-13T21:42:20.365Z,13.87
2022-12-13T21:47:22.178Z,13.77
2022-12-13T21:52:23.914Z,13.43
2022-12-13T21:57:44.601Z,14.33
2022-12-13T22:02:46.304Z,14.27
2022-12-13T22:07:48.128Z,15.03
2022-12-13T22:12:49.811Z,14.20
2022-12-13T22:17:53.175Z,13.60
2022-12-13T22:22:54.891Z,14.50
2022-12-13T22:27:57.283Z,14.40
2022-12-13T22:32:58.845Z,13.57
2022-12-13T22:38:01.788Z,15.67
2022-12-13T22:43:03.521Z,14.97
2022-12-13T22:48:05.665Z,13.50
2022-12-13T22:53:07.290Z,15.50
2022-12-13T22:58:08.838Z,15.17
2022-12-13T23:03:11.310Z,13.77
2022-12-13T23:08:12.942Z,15.53
2022-12-13T23:13:14.578Z,14.80
2022-12-13T23:18:16.105Z,14.87
2022-12-13T23:23:17.716Z,14.23
2022-12-13T23:28:19.319Z,15.20
2022-12-13T23:33:20.977Z,15.53
2022-12-13T23:38:22.515Z,15.50
2022-12-13T23:43:24.112Z,15.73
2022-12-13T23:48:27.142Z,14.83
2022-12-13T23:53:28.866Z,16.27
2022-12-13T23:58:30.571Z,15.03
